Terminal Aerodrome Forecast
Issued by NWS Louisville, KY

Home | Current Version | Previous Version | Text Only | Print | Product List | Glossary On
Versions: 1 2 3 4 5 6 7 8 9 10 11 12 13 14 15 16 17 18 19 20 21 22 23 24 25
984
FTUS43 KLMK 252320
TAFSDF
TAF
KSDF 252320Z 2600/2706 17012KT 6SM -SHRA VCTS BKN040CB
     FM260200 16010KT P6SM VCSH BKN040
     FM260500 17007KT 4SM -SHRA BR BKN025
     FM261300 17010KT P6SM VCSH BKN035
     FM261700 21014G26KT P6SM BKN050=

USA.gov is the U.S. government's official web portal to all federal, state and local government web resources and services.